Terminal Aerodrome Forecast
Issued by NWS

Home | Current Version | Previous Version | Text Only | Print | Product List | Glossary On
Versions: 1 2 3 4 5 6 7 8 9 10 11 12 13 14 15 16 17 18 19 20 21 22 23 24 25 26 27 28 29 30
000
FTAK31 PANC 282334
TAFAAQ
TAF
PAAQ 282334Z 2900/2924 14012KT P6SM FEW100 BKN200
     FM290300 03007KT P6SM SCT080 BKN100
     FM291500 02007KT P6SM VCSH BKN080
     FM292100 13012G22KT P6SM BKN080=

USA.gov is the U.S. government's official web portal to all federal, state and local government web resources and services.